Time;durP1;ratioP1;P1;durP2;ratioP2;P2;SDS_P1;SDS_P2;PMS_P1;PMS_P2;Temp;Humidity;BMP_temperature;BMP_pressure;BME280_temperature;BME280_humidity;BME280_pressure;Samples;Min_cycle;Max_cycle;Signal;HPM_P1;HPM_P2
2023/06/10 00:02:09;;;;;;;1.55;0.90;;;;;;;;;;5022766;28;20034;-77
2023/06/10 00:04:36;;;;;;;2.40;1.30;;;;;;;;;;5026796;28;20381;-78
2023/06/10 00:07:09;;;;;;;3.33;1.40;;;;;;;;;;5013174;28;20033;-78
2023/06/10 00:09:39;;;;;;;1.73;1.05;;;;;;;;;;5014493;28;20112;-78
2023/06/10 00:12:06;;;;;;;1.02;0.93;;;;;;;;;;5012900;28;20033;-78
2023/06/10 00:14:32;;;;;;;1.15;0.98;;;;;;;;;;5012405;28;20033;-78
2023/06/10 00:16:59;;;;;;;1.50;1.15;;;;;;;;;;5010794;28;20044;-77
2023/06/10 00:19:25;;;;;;;1.25;1.10;;;;;;;;;;5018082;28;20049;-78
2023/06/10 00:21:52;;;;;;;2.17;1.42;;;;;;;;;;5017339;28;20022;-77
2023/06/10 00:24:18;;;;;;;1.30;1.13;;;;;;;;;;5011907;28;20073;-78
2023/06/10 00:26:44;;;;;;;0.85;0.82;;;;;;;;;;5010159;28;20021;-78
2023/06/10 00:29:10;;;;;;;1.33;1.10;;;;;;;;;;5010591;28;20603;-77
2023/06/10 00:31:37;;;;;;;2.75;1.48;;;;;;;;;;5018454;28;20040;-78
2023/06/10 00:34:03;;;;;;;2.05;1.35;;;;;;;;;;5013681;28;20041;-77
2023/06/10 00:36:30;;;;;;;1.60;1.15;;;;;;;;;;5026292;28;20048;-78
2023/06/10 00:38:56;;;;;;;2.13;1.27;;;;;;;;;;5022815;28;20279;-77
2023/06/10 00:41:22;;;;;;;2.40;1.38;;;;;;;;;;5017481;28;20498;-77
2023/06/10 00:43:48;;;;;;;1.70;1.10;;;;;;;;;;5026513;28;20038;-78
2023/06/10 00:46:15;;;;;;;2.13;1.25;;;;;;;;;;5029982;28;20029;-78
2023/06/10 00:48:41;;;;;;;1.50;1.20;;;;;;;;;;5026879;28;20052;-77
2023/06/10 00:51:08;;;;;;;2.15;1.15;;;;;;;;;;5018220;28;20025;-77
2023/06/10 00:53:35;;;;;;;1.20;1.00;;;;;;;;;;5019404;28;20029;-78
2023/06/10 00:56:01;;;;;;;1.45;1.20;;;;;;;;;;5019889;28;20026;-78
2023/06/10 00:58:27;;;;;;;2.40;0.90;;;;;;;;;;5022148;28;20509;-78
2023/06/10 01:00:53;;;;;;;4.10;1.63;;;;;;;;;;5029627;28;20029;-78
2023/06/10 01:03:19;;;;;;;1.30;1.10;;;;;;;;;;5023635;28;20037;-77
2023/06/10 01:05:51;;;;;;;1.50;1.08;;;;;;;;;;5020055;28;20550;-78
2023/06/10 01:08:25;;;;;;;1.33;0.93;;;;;;;;;;5012721;28;20067;-78
2023/06/10 01:10:54;;;;;;;1.30;0.90;;;;;;;;;;5021287;28;20105;-78
2023/06/10 01:13:23;;;;;;;2.53;1.10;;;;;;;;;;5021554;28;20030;-78
2023/06/10 01:15:49;;;;;;;1.30;0.93;;;;;;;;;;5025933;28;20049;-78
2023/06/10 01:18:16;;;;;;;1.60;1.02;;;;;;;;;;5020665;28;20038;-78
2023/06/10 01:20:46;;;;;;;1.75;0.98;;;;;;;;;;5027196;28;20040;-79
2023/06/10 01:23:12;;;;;;;1.23;0.82;;;;;;;;;;5021079;28;20072;-78
2023/06/10 01:25:39;;;;;;;2.05;1.10;;;;;;;;;;5021431;28;20025;-78
2023/06/10 01:28:13;;;;;;;1.92;1.10;;;;;;;;;;5019066;28;20030;-78
2023/06/10 01:30:47;;;;;;;2.30;1.38;;;;;;;;;;5024481;28;20533;-78
2023/06/10 01:33:15;;;;;;;1.85;1.30;;;;;;;;;;5015395;28;20487;-78
2023/06/10 01:35:44;;;;;;;2.42;1.33;;;;;;;;;;5029073;28;20315;-78
2023/06/10 01:38:11;;;;;;;1.40;0.88;;;;;;;;;;5023921;28;20108;-78
2023/06/10 01:40:37;;;;;;;2.00;1.17;;;;;;;;;;5018585;28;20139;-78
2023/06/10 01:43:03;;;;;;;2.55;1.13;;;;;;;;;;5027236;28;20116;-78
2023/06/10 01:45:29;;;;;;;1.58;1.10;;;;;;;;;;5024491;28;20037;-78
2023/06/10 01:47:55;;;;;;;3.13;1.08;;;;;;;;;;5021489;28;20025;-78
2023/06/10 01:50:21;;;;;;;0.82;0.82;;;;;;;;;;5021762;28;20496;-78
2023/06/10 01:52:47;;;;;;;1.55;0.85;;;;;;;;;;5018932;28;20529;-78
2023/06/10 01:55:13;;;;;;;1.80;1.20;;;;;;;;;;5025305;28;20195;-79
2023/06/10 01:57:39;;;;;;;0.95;0.95;;;;;;;;;;5025636;28;20022;-78
2023/06/10 02:00:05;;;;;;;1.10;1.00;;;;;;;;;;5026606;28;20515;-78
2023/06/10 02:02:31;;;;;;;1.33;1.00;;;;;;;;;;5016812;28;20053;-78
2023/06/10 02:04:57;;;;;;;2.05;0.90;;;;;;;;;;5022315;28;20480;-78
2023/06/10 02:07:23;;;;;;;1.83;1.30;;;;;;;;;;5018850;28;20074;-78
2023/06/10 02:09:49;;;;;;;2.22;1.10;;;;;;;;;;5025616;28;20120;-78
2023/06/10 02:12:15;;;;;;;2.13;0.98;;;;;;;;;;5017462;28;20485;-78
2023/06/10 02:14:41;;;;;;;0.98;0.90;;;;;;;;;;5015748;28;20404;-78
2023/06/10 02:17:07;;;;;;;0.82;0.80;;;;;;;;;;5024565;28;20045;-78
2023/06/10 02:19:36;;;;;;;0.80;0.70;;;;;;;;;;5022663;28;20050;-78
2023/06/10 02:22:02;;;;;;;1.58;1.02;;;;;;;;;;5019726;28;20088;-78
2023/06/10 02:24:28;;;;;;;1.33;0.77;;;;;;;;;;5018936;28;20121;-78
2023/06/10 02:26:55;;;;;;;0.80;0.80;;;;;;;;;;5025976;28;20044;-79
2023/06/10 02:29:21;;;;;;;1.27;1.17;;;;;;;;;;5016498;28;20039;-78
2023/06/10 02:31:47;;;;;;;0.90;0.90;;;;;;;;;;5027894;28;20030;-78
2023/06/10 02:34:13;;;;;;;1.33;1.00;;;;;;;;;;5011515;28;20033;-78
2023/06/10 02:36:39;;;;;;;2.50;0.80;;;;;;;;;;5017546;28;20064;-78
2023/06/10 02:39:05;;;;;;;1.00;0.90;;;;;;;;;;5017139;28;20473;-79
2023/06/10 02:41:31;;;;;;;2.88;1.00;;;;;;;;;;5012502;28;20588;-78
2023/06/10 02:43:56;;;;;;;1.65;1.25;;;;;;;;;;5013613;28;20037;-78
2023/06/10 02:46:22;;;;;;;1.23;0.93;;;;;;;;;;5016921;28;20056;-78
2023/06/10 02:48:51;;;;;;;1.48;0.90;;;;;;;;;;5021839;28;20032;-78
2023/06/10 02:51:17;;;;;;;1.13;0.98;;;;;;;;;;5023515;28;20067;-78
2023/06/10 02:53:43;;;;;;;1.05;1.00;;;;;;;;;;5010884;28;20026;-78
2023/06/10 02:56:12;;;;;;;1.15;1.05;;;;;;;;;;5019135;28;20021;-78
2023/06/10 02:58:38;;;;;;;2.55;1.45;;;;;;;;;;5025610;28;20026;-79
2023/06/10 03:01:04;;;;;;;1.05;0.77;;;;;;;;;;5020385;28;20029;-78
2023/06/10 03:03:33;;;;;;;2.97;1.23;;;;;;;;;;5009920;28;20057;-78
2023/06/10 03:05:59;;;;;;;1.48;1.13;;;;;;;;;;5019163;28;20018;-78
2023/06/10 03:08:26;;;;;;;1.10;0.93;;;;;;;;;;5026492;28;20045;-78
2023/06/10 03:10:52;;;;;;;1.30;0.82;;;;;;;;;;5026983;28;20032;-78
2023/06/10 03:13:18;;;;;;;2.20;1.10;;;;;;;;;;5025591;28;20037;-78
2023/06/10 03:15:44;;;;;;;1.05;0.88;;;;;;;;;;5022522;28;20041;-78
2023/06/10 03:18:10;;;;;;;1.00;0.90;;;;;;;;;;5020274;28;20034;-78
2023/06/10 03:20:36;;;;;;;1.20;1.02;;;;;;;;;;5017338;28;20036;-77
2023/06/10 03:23:02;;;;;;;1.45;1.02;;;;;;;;;;5018193;28;20041;-77
2023/06/10 03:25:30;;;;;;;1.50;1.02;;;;;;;;;;5015253;28;20038;-76
2023/06/10 03:27:56;;;;;;;1.20;1.00;;;;;;;;;;5031556;28;20101;-76
2023/06/10 03:30:22;;;;;;;1.40;0.80;;;;;;;;;;5023374;28;20037;-78
2023/06/10 03:32:49;;;;;;;3.92;1.00;;;;;;;;;;5016994;28;20503;-77
2023/06/10 03:35:14;;;;;;;3.75;0.93;;;;;;;;;;5017483;28;20033;-77
2023/06/10 03:37:41;;;;;;;1.15;0.95;;;;;;;;;;5017563;28;20037;-77
2023/06/10 03:40:08;;;;;;;1.17;0.93;;;;;;;;;;5027479;28;20680;-78
2023/06/10 03:42:34;;;;;;;0.88;0.75;;;;;;;;;;5021703;28;20114;-78
2023/06/10 03:45:00;;;;;;;0.90;0.80;;;;;;;;;;5019233;28;20032;-77
2023/06/10 03:47:26;;;;;;;0.93;0.80;;;;;;;;;;5020983;28;20484;-77
2023/06/10 03:49:52;;;;;;;1.00;0.90;;;;;;;;;;5020631;28;20095;-78
2023/06/10 03:52:19;;;;;;;2.10;1.02;;;;;;;;;;5017426;28;20025;-78
2023/06/10 03:54:45;;;;;;;1.25;1.00;;;;;;;;;;5025908;28;20132;-78
2023/06/10 03:57:10;;;;;;;0.80;0.80;;;;;;;;;;5023851;28;20021;-78
2023/06/10 03:59:36;;;;;;;1.13;1.02;;;;;;;;;;5034184;28;20107;-77
2023/06/10 04:02:04;;;;;;;0.80;0.80;;;;;;;;;;5024377;28;20038;-79
2023/06/10 04:04:30;;;;;;;0.85;0.80;;;;;;;;;;5027447;28;20033;-78
2023/06/10 04:06:56;;;;;;;1.17;0.90;;;;;;;;;;5022989;28;20397;-77
2023/06/10 04:09:22;;;;;;;0.95;0.85;;;;;;;;;;5028012;28;20431;-78
2023/06/10 04:11:48;;;;;;;1.10;0.93;;;;;;;;;;5024995;28;20376;-78
2023/06/10 04:14:14;;;;;;;2.70;1.40;;;;;;;;;;5033393;28;20029;-77
2023/06/10 04:16:42;;;;;;;1.17;0.80;;;;;;;;;;5016374;28;20061;-77
2023/06/10 04:19:08;;;;;;;1.02;1.02;;;;;;;;;;5013422;28;20042;-77
2023/06/10 04:21:35;;;;;;;1.58;1.00;;;;;;;;;;5017679;28;20065;-78
2023/06/10 04:24:01;;;;;;;1.50;1.02;;;;;;;;;;5023608;28;20112;-75
2023/06/10 04:26:28;;;;;;;1.40;1.30;;;;;;;;;;5025333;28;20029;-77
2023/06/10 04:28:54;;;;;;;1.58;1.05;;;;;;;;;;5027303;28;20503;-84
2023/06/10 04:31:20;;;;;;;1.65;1.13;;;;;;;;;;5011179;28;20634;-79
2023/06/10 04:33:46;;;;;;;1.65;1.02;;;;;;;;;;5011077;28;20045;-82
2023/06/10 04:36:12;;;;;;;2.40;1.35;;;;;;;;;;5020971;28;20033;-79
2023/06/10 04:38:38;;;;;;;2.00;1.20;;;;;;;;;;5029260;28;20079;-83
2023/06/10 04:41:04;;;;;;;1.30;1.10;;;;;;;;;;5021058;28;20411;-87
2023/06/10 04:43:30;;;;;;;1.70;1.10;;;;;;;;;;5013080;28;20404;-76
2023/06/10 04:45:56;;;;;;;2.15;1.45;;;;;;;;;;5014584;28;20021;-81
2023/06/10 04:48:23;;;;;;;1.27;1.17;;;;;;;;;;5021933;28;20104;-82
2023/06/10 04:50:50;;;;;;;1.98;1.13;;;;;;;;;;5022130;28;20121;-81
2023/06/10 04:53:16;;;;;;;1.98;1.23;;;;;;;;;;5011091;28;20436;-81
2023/06/10 04:55:43;;;;;;;2.70;1.48;;;;;;;;;;5021198;28;20014;-81
2023/06/10 04:58:09;;;;;;;1.40;1.00;;;;;;;;;;5023894;28;20029;-81
2023/06/10 05:00:35;;;;;;;1.77;1.25;;;;;;;;;;5020587;28;20374;-80
2023/06/10 05:03:01;;;;;;;2.40;1.25;;;;;;;;;;5025357;28;20037;-81
2023/06/10 05:05:27;;;;;;;1.52;1.05;;;;;;;;;;5027664;28;20014;-80
2023/06/10 05:07:53;;;;;;;3.17;1.27;;;;;;;;;;5015736;28;20034;-81
2023/06/10 05:10:19;;;;;;;1.50;1.30;;;;;;;;;;5013066;28;20022;-81
2023/06/10 05:12:48;;;;;;;37.13;9.95;;;;;;;;;;5020041;28;20033;-84
2023/06/10 05:15:14;;;;;;;12.90;4.82;;;;;;;;;;5028739;28;20033;-77
2023/06/10 05:17:40;;;;;;;9.10;3.75;;;;;;;;;;5021355;28;20033;-79
2023/06/10 05:20:06;;;;;;;6.80;3.13;;;;;;;;;;5022683;28;20136;-80
2023/06/10 05:22:32;;;;;;;4.00;2.60;;;;;;;;;;5023364;28;20045;-82
2023/06/10 05:24:58;;;;;;;4.43;2.20;;;;;;;;;;5029392;28;20112;-81
2023/06/10 05:27:25;;;;;;;4.72;2.25;;;;;;;;;;5024876;28;20524;-80
2023/06/10 05:30:33;;;;;;;9.68;2.80;;;;;;;;;;5023185;28;20044;-80
2023/06/10 05:32:59;;;;;;;4.05;2.15;;;;;;;;;;5013861;28;20034;-80
2023/06/10 05:35:25;;;;;;;4.68;2.03;;;;;;;;;;5010735;28;20064;-79
2023/06/10 05:37:51;;;;;;;8.60;2.95;;;;;;;;;;5009253;28;20030;-80
2023/06/10 05:40:17;;;;;;;7.13;2.28;;;;;;;;;;5009376;28;20021;-81
2023/06/10 05:42:43;;;;;;;4.07;1.90;;;;;;;;;;5013322;28;20476;-80
2023/06/10 05:45:10;;;;;;;6.10;2.17;;;;;;;;;;5014884;28;20646;-79
2023/06/10 05:47:36;;;;;;;5.93;2.45;;;;;;;;;;5027733;28;20025;-80
2023/06/10 05:50:02;;;;;;;6.38;2.20;;;;;;;;;;5028417;28;20025;-80
2023/06/10 05:52:28;;;;;;;5.57;2.30;;;;;;;;;;5027583;28;20053;-79
2023/06/10 05:54:54;;;;;;;3.50;2.13;;;;;;;;;;5015218;28;20026;-81
2023/06/10 05:57:20;;;;;;;3.72;1.52;;;;;;;;;;5019970;28;20025;-80
2023/06/10 05:59:46;;;;;;;3.33;1.63;;;;;;;;;;5024965;28;20114;-81
2023/06/10 06:02:12;;;;;;;3.00;1.83;;;;;;;;;;5017943;28;20531;-80
2023/06/10 06:04:38;;;;;;;4.47;1.92;;;;;;;;;;5014486;28;20026;-80
2023/06/10 06:07:05;;;;;;;6.43;1.85;;;;;;;;;;5020550;28;20057;-79
2023/06/10 06:09:31;;;;;;;3.33;1.60;;;;;;;;;;5027975;28;20025;-81
2023/06/10 06:11:57;;;;;;;3.55;2.20;;;;;;;;;;5023865;28;20069;-81
2023/06/10 06:14:23;;;;;;;3.97;2.38;;;;;;;;;;5019628;28;20120;-80
2023/06/10 06:16:49;;;;;;;2.90;1.73;;;;;;;;;;5022845;28;20025;-80
2023/06/10 06:19:15;;;;;;;4.30;1.60;;;;;;;;;;5018989;28;20041;-79
2023/06/10 06:21:41;;;;;;;5.72;1.85;;;;;;;;;;5020308;28;20187;-80
2023/06/10 06:24:07;;;;;;;3.30;1.75;;;;;;;;;;5024984;28;20040;-80
2023/06/10 06:26:33;;;;;;;4.07;1.55;;;;;;;;;;5020403;28;20045;-81
2023/06/10 06:28:59;;;;;;;2.38;1.80;;;;;;;;;;5020459;28;20627;-81
2023/06/10 06:31:25;;;;;;;1.92;1.30;;;;;;;;;;5020045;28;20045;-82
2023/06/10 06:33:51;;;;;;;4.28;1.80;;;;;;;;;;5019005;28;20033;-82
2023/06/10 06:36:17;;;;;;;3.42;1.92;;;;;;;;;;5019977;28;20030;-81
2023/06/10 06:38:43;;;;;;;3.78;1.88;;;;;;;;;;5008021;28;20396;-81
2023/06/10 06:41:09;;;;;;;2.60;2.05;;;;;;;;;;5015785;28;20448;-80
2023/06/10 06:43:35;;;;;;;3.72;1.52;;;;;;;;;;5021116;28;20052;-80
2023/06/10 06:46:01;;;;;;;1.85;1.20;;;;;;;;;;5018476;28;20018;-81
2023/06/10 06:48:27;;;;;;;2.28;1.67;;;;;;;;;;5014297;28;20091;-80
2023/06/10 06:50:53;;;;;;;3.67;2.03;;;;;;;;;;5014471;28;20026;-81
2023/06/10 06:53:19;;;;;;;3.03;1.85;;;;;;;;;;5013071;28;20056;-80
2023/06/10 06:55:45;;;;;;;3.20;1.90;;;;;;;;;;5025189;28;20036;-81
2023/06/10 06:58:11;;;;;;;2.20;1.45;;;;;;;;;;5013994;28;20396;-80
2023/06/10 07:00:37;;;;;;;1.90;1.27;;;;;;;;;;5019503;28;20041;-80
2023/06/10 07:03:03;;;;;;;2.45;1.35;;;;;;;;;;5015478;28;20034;-82
2023/06/10 07:05:30;;;;;;;1.77;1.40;;;;;;;;;;5022765;28;20025;-82
2023/06/10 07:07:56;;;;;;;3.83;1.63;;;;;;;;;;5019445;28;20095;-81
2023/06/10 07:10:23;;;;;;;3.90;1.75;;;;;;;;;;5030281;28;20021;-82
2023/06/10 07:12:49;;;;;;;2.47;1.58;;;;;;;;;;5019782;28;20028;-81
2023/06/10 07:15:15;;;;;;;2.42;1.80;;;;;;;;;;5021834;28;20037;-82
2023/06/10 07:17:41;;;;;;;2.92;1.40;;;;;;;;;;5018922;28;20506;-81
2023/06/10 07:20:07;;;;;;;6.30;1.50;;;;;;;;;;5021392;28;20049;-81
2023/06/10 07:22:33;;;;;;;1.48;0.98;;;;;;;;;;5012376;28;20029;-82
2023/06/10 07:24:59;;;;;;;5.13;1.33;;;;;;;;;;4993763;28;20021;-81
2023/06/10 07:27:25;;;;;;;2.88;1.90;;;;;;;;;;5011568;28;20029;-81
2023/06/10 07:29:51;;;;;;;3.50;1.35;;;;;;;;;;5024878;28;20045;-81
2023/06/10 07:32:17;;;;;;;1.92;1.65;;;;;;;;;;5027556;28;20034;-81
2023/06/10 07:34:53;;;;;;;2.55;1.52;;;;;;;;;;5021942;28;20176;-82
2023/06/10 07:37:19;;;;;;;2.70;1.63;;;;;;;;;;5016731;28;20041;-82
2023/06/10 07:39:45;;;;;;;3.15;1.60;;;;;;;;;;5015572;28;20480;-83
2023/06/10 07:42:12;;;;;;;2.45;1.30;;;;;;;;;;5019561;28;20037;-81
2023/06/10 07:44:38;;;;;;;4.10;1.48;;;;;;;;;;5019705;28;20378;-81
2023/06/10 07:47:04;;;;;;;3.25;1.70;;;;;;;;;;5013401;28;20085;-83
2023/06/10 07:49:30;;;;;;;2.35;1.67;;;;;;;;;;5014040;28;20028;-80
2023/06/10 07:51:56;;;;;;;2.42;1.30;;;;;;;;;;5023261;28;20025;-81
2023/06/10 07:54:22;;;;;;;3.15;1.67;;;;;;;;;;5023954;28;20036;-81
2023/06/10 07:56:48;;;;;;;3.40;1.98;;;;;;;;;;5027947;28;20104;-81
2023/06/10 07:59:15;;;;;;;4.22;1.65;;;;;;;;;;5025763;28;20368;-81
2023/06/10 08:01:42;;;;;;;2.20;1.40;;;;;;;;;;5022153;28;20076;-81
2023/06/10 08:04:08;;;;;;;2.35;1.77;;;;;;;;;;5017024;28;20044;-81
2023/06/10 08:06:34;;;;;;;4.07;1.92;;;;;;;;;;5019868;28;20018;-81
2023/06/10 08:09:00;;;;;;;2.10;1.73;;;;;;;;;;5023482;28;20109;-81
2023/06/10 08:11:28;;;;;;;4.30;1.48;;;;;;;;;;5023821;28;20030;-81
2023/06/10 08:13:54;;;;;;;1.95;1.15;;;;;;;;;;5010683;28;20396;-82
2023/06/10 08:16:20;;;;;;;2.67;1.60;;;;;;;;;;5023856;28;20033;-82
2023/06/10 08:18:46;;;;;;;3.30;1.88;;;;;;;;;;5019685;28;20048;-81
2023/06/10 08:21:12;;;;;;;2.45;1.55;;;;;;;;;;5026812;28;20034;-83
2023/06/10 08:23:39;;;;;;;2.85;1.65;;;;;;;;;;5016376;28;20111;-82
2023/06/10 08:26:04;;;;;;;4.38;1.60;;;;;;;;;;5016126;28;20068;-82
2023/06/10 08:28:30;;;;;;;3.67;1.63;;;;;;;;;;5014712;28;20066;-82
2023/06/10 08:30:56;;;;;;;1.85;1.23;;;;;;;;;;5013937;28;20029;-83
2023/06/10 08:33:22;;;;;;;6.05;1.75;;;;;;;;;;5019417;28;20640;-83
2023/06/10 08:35:48;;;;;;;3.08;2.25;;;;;;;;;;5018251;28;20429;-82
2023/06/10 08:38:16;;;;;;;2.25;1.40;;;;;;;;;;5019202;28;20436;-82
2023/06/10 08:40:41;;;;;;;3.55;1.98;;;;;;;;;;5015832;28;20037;-82
2023/06/10 08:43:08;;;;;;;1.35;1.25;;;;;;;;;;5018852;28;20093;-83
2023/06/10 08:45:36;;;;;;;4.90;1.33;;;;;;;;;;5009673;28;20512;-82
2023/06/10 08:48:06;;;;;;;2.88;1.50;;;;;;;;;;5024644;28;20094;-82
2023/06/10 08:50:35;;;;;;;2.22;1.58;;;;;;;;;;5011009;28;20026;-82
2023/06/10 08:53:02;;;;;;;3.38;1.63;;;;;;;;;;5028071;28;20029;-82
2023/06/10 08:55:31;;;;;;;4.38;2.00;;;;;;;;;;5029691;28;20029;-81
2023/06/10 08:57:57;;;;;;;1.98;1.35;;;;;;;;;;5023508;28;20030;-81
2023/06/10 09:00:28;;;;;;;1.65;1.50;;;;;;;;;;5026201;28;20076;-82
2023/06/10 09:02:54;;;;;;;;;;;;;;;;;;5026212;28;20407;-82
2023/06/10 09:05:23;;;;;;;2.25;1.60;;;;;;;;;;5025190;28;19962;-82
2023/06/10 09:08:08;;;;;;;2.13;1.85;;;;;;;;;;5015573;28;20057;-80
2023/06/10 09:10:35;;;;;;;3.30;1.50;;;;;;;;;;5012745;28;20038;-82
2023/06/10 09:13:01;;;;;;;2.17;1.65;;;;;;;;;;5011483;28;20038;-82
2023/06/10 09:15:32;;;;;;;2.85;1.42;;;;;;;;;;5023187;28;20033;-83
2023/06/10 09:17:59;;;;;;;4.25;1.35;;;;;;;;;;5026786;28;20425;-81
2023/06/10 09:20:25;;;;;;;2.63;1.70;;;;;;;;;;5023822;28;22597;-82
2023/06/10 09:22:52;;;;;;;1.88;1.33;;;;;;;;;;5018374;28;20116;-81
2023/06/10 09:25:18;;;;;;;1.60;1.50;;;;;;;;;;5026749;28;20439;-81
2023/06/10 09:27:49;;;;;;;2.00;1.58;;;;;;;;;;5024022;28;20029;-82
2023/06/10 09:30:28;;;;;;;3.08;1.50;;;;;;;;;;5026346;28;20388;-81
2023/06/10 09:32:56;;;;;;;4.20;1.73;;;;;;;;;;5024003;28;20047;-81
2023/06/10 09:35:22;;;;;;;3.78;1.60;;;;;;;;;;5023794;28;20026;-84
2023/06/10 09:37:50;;;;;;;2.88;1.70;;;;;;;;;;5022541;28;20027;-81
2023/06/10 09:40:19;;;;;;;3.63;1.30;;;;;;;;;;5027705;28;20029;-80
2023/06/10 09:42:45;;;;;;;2.85;1.40;;;;;;;;;;5007843;28;20049;-81
2023/06/10 09:45:11;;;;;;;4.38;1.67;;;;;;;;;;5024166;28;20388;-80
2023/06/10 09:47:37;;;;;;;5.45;1.45;;;;;;;;;;5027521;28;20466;-80
2023/06/10 09:50:03;;;;;;;5.43;1.88;;;;;;;;;;5020158;28;20037;-80
2023/06/10 09:52:30;;;;;;;3.90;1.92;;;;;;;;;;5019260;28;20038;-82
2023/06/10 09:55:00;;;;;;;3.10;1.60;;;;;;;;;;5009681;28;20575;-82
2023/06/10 09:57:26;;;;;;;2.00;1.33;;;;;;;;;;5029115;28;20021;-83
2023/06/10 09:59:56;;;;;;;1.60;1.48;;;;;;;;;;5013603;28;20122;-80
2023/06/10 10:02:22;;;;;;;2.67;1.52;;;;;;;;;;5008374;28;20535;-79
2023/06/10 10:04:48;;;;;;;3.90;1.77;;;;;;;;;;5015687;28;20076;-79
2023/06/10 10:07:14;;;;;;;2.13;1.60;;;;;;;;;;5014036;28;20026;-87
2023/06/10 10:09:41;;;;;;;1.80;1.48;;;;;;;;;;5009736;28;20026;-82
2023/06/10 10:12:12;;;;;;;2.08;1.55;;;;;;;;;;5021886;28;20095;-85
2023/06/10 10:14:38;;;;;;;3.05;1.30;;;;;;;;;;5016901;28;20022;-77
2023/06/10 10:17:11;;;;;;;2.35;1.17;;;;;;;;;;5024756;28;20030;-77
2023/06/10 10:19:48;;;;;;;3.92;1.42;;;;;;;;;;5022143;28;20772;-77
2023/06/10 10:22:34;;;;;;;2.25;1.70;;;;;;;;;;5015118;28;20048;-77
2023/06/10 10:25:03;;;;;;;2.25;1.58;;;;;;;;;;5016151;28;20037;-76
2023/06/10 10:27:31;;;;;;;1.40;1.30;;;;;;;;;;5014843;28;20046;-76
2023/06/10 10:29:58;;;;;;;4.10;1.42;;;;;;;;;;4996792;28;20143;-77
2023/06/10 10:32:38;;;;;;;2.88;1.38;;;;;;;;;;5012525;28;20037;-76
2023/06/10 10:35:18;;;;;;;1.63;1.33;;;;;;;;;;5013691;28;20030;-76
2023/06/10 10:37:44;;;;;;;2.03;1.25;;;;;;;;;;5009304;28;20614;-77
2023/06/10 10:40:11;;;;;;;2.70;1.20;;;;;;;;;;5023406;28;20046;-77
2023/06/10 10:42:37;;;;;;;3.15;1.90;;;;;;;;;;5019571;28;20026;-77
2023/06/10 10:45:03;;;;;;;1.52;1.17;;;;;;;;;;5012958;28;20026;-77
2023/06/10 10:47:31;;;;;;;2.72;1.35;;;;;;;;;;5017087;28;20039;-77
2023/06/10 10:49:59;;;;;;;1.67;1.30;;;;;;;;;;5018376;28;20025;-77
2023/06/10 10:52:25;;;;;;;3.45;2.05;;;;;;;;;;5015559;28;20026;-76
2023/06/10 10:54:53;;;;;;;1.83;1.30;;;;;;;;;;5013211;28;20048;-77
2023/06/10 10:57:23;;;;;;;2.33;1.58;;;;;;;;;;5017233;28;20030;-77
2023/06/10 10:59:51;;;;;;;2.38;1.63;;;;;;;;;;5013706;28;20625;-77
2023/06/10 11:02:18;;;;;;;2.30;1.40;;;;;;;;;;5012468;28;20030;-76
2023/06/10 11:04:47;;;;;;;2.17;1.30;;;;;;;;;;5014283;28;20032;-77
2023/06/10 11:07:16;;;;;;;2.92;1.90;;;;;;;;;;5019643;28;20387;-77
2023/06/10 11:10:01;;;;;;;2.08;1.52;;;;;;;;;;5018209;28;20101;-77
2023/06/10 11:12:39;;;;;;;2.75;2.20;;;;;;;;;;5018217;28;20029;-77
2023/06/10 11:15:05;;;;;;;3.60;1.65;;;;;;;;;;5022046;28;20037;-76
2023/06/10 11:17:31;;;;;;;2.63;1.70;;;;;;;;;;5018501;28;20040;-76
2023/06/10 11:19:59;;;;;;;3.78;1.80;;;;;;;;;;5009166;28;20046;-77
2023/06/10 11:22:25;;;;;;;1.63;1.52;;;;;;;;;;5020094;28;20053;-76
2023/06/10 11:24:51;;;;;;;2.22;1.75;;;;;;;;;;5012887;28;20057;-78
2023/06/10 11:27:21;;;;;;;1.70;1.40;;;;;;;;;;5007578;28;20026;-77
2023/06/10 11:30:05;;;;;;;3.00;1.90;;;;;;;;;;5010881;28;20116;-77
2023/06/10 11:32:32;;;;;;;3.03;1.85;;;;;;;;;;5020848;28;20037;-77
2023/06/10 11:34:59;;;;;;;3.40;1.75;;;;;;;;;;5012282;28;20048;-78
2023/06/10 11:37:25;;;;;;;1.95;1.67;;;;;;;;;;5022713;28;20026;-77
2023/06/10 11:39:55;;;;;;;1.73;1.20;;;;;;;;;;5014794;28;20037;-77
2023/06/10 11:42:21;;;;;;;2.10;1.60;;;;;;;;;;4992180;28;20184;-77
2023/06/10 11:44:51;;;;;;;2.60;1.80;;;;;;;;;;5010890;28;20025;-77
2023/06/10 11:47:17;;;;;;;2.42;1.55;;;;;;;;;;5014884;28;20084;-77
2023/06/10 11:49:43;;;;;;;2.15;1.30;;;;;;;;;;5025463;28;20464;-78
2023/06/10 11:52:09;;;;;;;1.67;1.25;;;;;;;;;;5015327;28;20022;-77
2023/06/10 11:54:35;;;;;;;3.22;1.73;;;;;;;;;;5018680;28;20033;-77
2023/06/10 11:57:02;;;;;;;1.70;1.42;;;;;;;;;;5026561;28;20184;-77
2023/06/10 11:59:29;;;;;;;2.97;1.48;;;;;;;;;;5025600;28;20113;-78
2023/06/10 12:01:54;;;;;;;3.45;1.55;;;;;;;;;;5019771;28;20021;-78
2023/06/10 12:04:22;;;;;;;2.75;1.50;;;;;;;;;;5022643;28;20033;-78
2023/06/10 12:06:51;;;;;;;3.00;1.88;;;;;;;;;;5023175;28;20499;-77
2023/06/10 12:09:27;;;;;;;2.85;1.90;;;;;;;;;;5013400;28;20389;-77
2023/06/10 12:11:55;;;;;;;2.53;1.80;;;;;;;;;;5012672;28;20485;-77
2023/06/10 12:14:40;;;;;;;2.72;1.35;;;;;;;;;;5012678;28;20021;-77
2023/06/10 12:17:06;;;;;;;2.63;1.40;;;;;;;;;;5021176;28;20041;-77
2023/06/10 12:19:32;;;;;;;2.30;1.98;;;;;;;;;;5015093;28;20058;-77
2023/06/10 12:22:01;;;;;;;1.83;1.60;;;;;;;;;;5025036;28;20114;-77
2023/06/10 12:24:27;;;;;;;2.60;1.70;;;;;;;;;;5018615;28;20037;-77
2023/06/10 12:26:54;;;;;;;1.75;1.63;;;;;;;;;;5010450;28;20022;-76
2023/06/10 12:29:23;;;;;;;1.95;1.50;;;;;;;;;;5018630;28;20072;-76
2023/06/10 12:32:00;;;;;;;2.22;1.90;;;;;;;;;;5016739;28;20026;-77
2023/06/10 12:34:33;;;;;;;1.75;1.42;;;;;;;;;;5010891;28;20018;-76
2023/06/10 12:37:01;;;;;;;2.13;1.63;;;;;;;;;;5016897;28;20030;-76
2023/06/10 12:39:27;;;;;;;2.75;1.77;;;;;;;;;;5022931;28;20028;-75
2023/06/10 12:41:53;;;;;;;2.13;1.50;;;;;;;;;;5015442;28;20026;-76
2023/06/10 12:44:28;;;;;;;2.42;1.90;;;;;;;;;;5014913;28;20044;-78
2023/06/10 12:46:55;;;;;;;2.55;1.63;;;;;;;;;;5014318;28;20025;-78
2023/06/10 12:49:21;;;;;;;1.73;1.40;;;;;;;;;;5020048;28;20538;-78
2023/06/10 12:51:48;;;;;;;1.52;1.35;;;;;;;;;;5017152;28;20037;-78
2023/06/10 12:54:14;;;;;;;1.52;1.25;;;;;;;;;;5014075;28;20025;-78
2023/06/10 12:56:40;;;;;;;1.70;1.30;;;;;;;;;;5021081;28;20034;-78
2023/06/10 12:59:06;;;;;;;1.95;1.48;;;;;;;;;;5014787;28;20408;-79
2023/06/10 13:01:33;;;;;;;2.05;1.38;;;;;;;;;;5023274;28;20030;-78
2023/06/10 13:03:59;;;;;;;1.60;1.23;;;;;;;;;;5024925;28;20026;-78
2023/06/10 13:06:26;;;;;;;2.17;1.15;;;;;;;;;;5023743;28;20468;-78
2023/06/10 13:08:52;;;;;;;1.90;1.50;;;;;;;;;;5012694;28;20499;-78
2023/06/10 13:11:18;;;;;;;1.65;1.40;;;;;;;;;;5013650;28;20512;-79
2023/06/10 13:13:46;;;;;;;2.25;1.40;;;;;;;;;;5012495;28;20087;-78
2023/06/10 13:16:11;;;;;;;1.20;1.10;;;;;;;;;;5022607;28;20040;-78
2023/06/10 13:18:38;;;;;;;1.85;1.30;;;;;;;;;;5022007;28;20041;-78
2023/06/10 13:21:04;;;;;;;1.65;1.50;;;;;;;;;;5026364;28;20040;-79
2023/06/10 13:23:31;;;;;;;3.22;1.70;;;;;;;;;;5024012;28;20048;-79
2023/06/10 13:25:57;;;;;;;1.83;1.20;;;;;;;;;;5014333;28;20428;-79
2023/06/10 13:28:23;;;;;;;1.67;1.27;;;;;;;;;;5019627;28;20026;-78
2023/06/10 13:30:49;;;;;;;2.28;1.63;;;;;;;;;;5014265;28;20037;-78
2023/06/10 13:33:18;;;;;;;1.48;1.38;;;;;;;;;;5012788;28;20485;-78
2023/06/10 13:35:44;;;;;;;2.55;1.50;;;;;;;;;;5015446;28;20029;-79
2023/06/10 13:38:10;;;;;;;2.22;1.40;;;;;;;;;;5019908;28;20706;-79
2023/06/10 13:40:36;;;;;;;2.17;1.35;;;;;;;;;;5017118;28;20030;-79
2023/06/10 13:43:02;;;;;;;1.60;1.42;;;;;;;;;;5015296;28;20037;-78
2023/06/10 13:45:28;;;;;;;2.55;1.67;;;;;;;;;;5020111;28;20072;-79
2023/06/10 13:47:54;;;;;;;1.30;1.20;;;;;;;;;;5016145;28;20495;-79
2023/06/10 13:50:20;;;;;;;1.60;1.45;;;;;;;;;;5022494;28;20022;-79
2023/06/10 13:52:49;;;;;;;1.88;1.50;;;;;;;;;;5017194;28;20045;-79
2023/06/10 13:55:16;;;;;;;1.73;1.40;;;;;;;;;;5013745;28;20021;-79
2023/06/10 13:57:42;;;;;;;2.67;1.63;;;;;;;;;;5024454;28;20030;-78
2023/06/10 14:00:10;;;;;;;4.03;1.38;;;;;;;;;;5023108;28;20389;-79
2023/06/10 14:02:36;;;;;;;2.60;1.27;;;;;;;;;;5016938;28;20248;-78
2023/06/10 14:05:02;;;;;;;1.75;1.20;;;;;;;;;;5015467;28;20025;-78
2023/06/10 14:07:28;;;;;;;1.77;1.38;;;;;;;;;;5023984;28;20028;-78
2023/06/10 14:09:54;;;;;;;1.40;1.25;;;;;;;;;;5012317;28;20024;-78
2023/06/10 14:12:20;;;;;;;2.53;1.30;;;;;;;;;;5015712;28;20030;-78
2023/06/10 14:14:45;;;;;;;2.78;1.83;;;;;;;;;;5012224;28;20080;-78
2023/06/10 14:17:11;;;;;;;2.35;1.40;;;;;;;;;;5015826;28;20034;-78
2023/06/10 14:19:37;;;;;;;1.90;1.45;;;;;;;;;;5025023;28;20044;-78
2023/06/10 14:22:03;;;;;;;2.78;1.50;;;;;;;;;;5013338;28;20030;-78
2023/06/10 14:24:29;;;;;;;1.52;1.30;;;;;;;;;;5019969;28;20129;-79
2023/06/10 14:26:58;;;;;;;2.22;1.40;;;;;;;;;;5009944;28;20512;-78
2023/06/10 14:29:24;;;;;;;2.17;1.65;;;;;;;;;;5025574;28;20022;-78
2023/06/10 14:31:50;;;;;;;1.42;1.25;;;;;;;;;;5016124;28;20584;-78
2023/06/10 14:34:15;;;;;;;1.85;1.63;;;;;;;;;;5015917;28;20025;-78
2023/06/10 14:36:41;;;;;;;1.50;1.40;;;;;;;;;;5019620;28;20025;-78
2023/06/10 14:39:07;;;;;;;2.55;1.63;;;;;;;;;;5014078;28;20084;-79
2023/06/10 14:41:33;;;;;;;1.42;1.30;;;;;;;;;;5008393;28;20072;-78
2023/06/10 14:43:59;;;;;;;1.90;1.40;;;;;;;;;;5010935;28;20487;-78